Hauptseite
METAR-TAF:

METAR-TAF

Flughäfen :

Curaçao, Niederländische Antillen

Flughafen Curaçao

Breite: 12-12N, Länge: 068-58W, Höhe: 9 m

Beobachtung

Neuester Wetterbericht von vor 1 Stunde und 55 Minuten, um 06:00 UTC
Wind 5 kt aus Südost
Temperatur 27°C
Luftfeuchtigkeit 84%
Luftdruck 1011 hPa
Sichtweite 10 km oder mehr
Leicht bewölkt in der Höhe von 1600 ft

METAR: TNCC 170600Z 13005KT 9999 FEW016 27/24 Q1011 NOSIG

Zeit: 03:55 (07:55 UTC)

Prognose

Neuester Wetterbericht von vor 3 Stunden und 55 Minuten, um 04:00 UTC
Gültige Prognose vom 17 um 06 UTC bis 18 um 06 UTC
Wind 10 kt aus Ost
Sichtweite 10 km oder mehr
Aufgelockert bewölkt in der Höhe von 1800 ft
Wahrscheinlichkeit 30% :
Zeitweise
vom 17 um 08 UTC bis 17 um 18 UTC
Sichtweite: 7000 m
Durchbrochene Bewölkung in der Höhe von 1500 ft
Regenschauer

TAF: TNCC 170400Z 1706/1806 09010KT 9999 SCT018 PROB30 TEMPO 1708/1718 7000 SHRA BKN015

Wetterbeobachtungen und Prognosen von mehr als 4000 Flughäfen (METAR und TAF Bericht).

Die verfügbaren Stationen werden durch gelbe und rote Markierungen auf der Karte dargestellt.

Führen Sie die Maus auf sie, um den Namen der Station zu sehen.

Darauf klicken, um die Beobachtung von Wetterbeobachtungen und Prognosen zu sehen.

Um die Karte zu ändern : klicken Sie auf den grünen Tasten mit einem schwarzen Kreuz Zum Vergrößern, auf den grünen Button mit einem Gedankenstrich zu verkleinern, oder auf die grünen Pfeile für benachbarte Karten.


METAR-TAF: